createdAt,value
2019-05-09T00:00:25.706Z,0.50
2019-05-09T00:01:25.682Z,0.50
2019-05-09T00:02:25.689Z,0.60
2019-05-09T00:03:25.694Z,1.00
2019-05-09T00:05:25.725Z,0.50
2019-05-09T00:06:25.693Z,0.60
2019-05-09T00:07:25.685Z,0.50
2019-05-09T00:08:25.750Z,0.50
2019-05-09T00:11:25.740Z,0.60
2019-05-09T00:12:25.726Z,0.50
2019-05-09T00:13:25.757Z,0.50
2019-05-09T00:14:25.746Z,0.60
2019-05-09T00:16:25.709Z,0.90
2019-05-09T00:17:25.702Z,0.80
2019-05-09T00:18:25.723Z,0.50
2019-05-09T00:19:25.711Z,0.60
2019-05-09T00:21:25.727Z,0.70
2019-05-09T00:22:25.730Z,0.70
2019-05-09T00:23:25.756Z,0.50
2019-05-09T00:24:25.719Z,0.50
2019-05-09T00:27:25.715Z,0.60
2019-05-09T00:28:25.732Z,0.60
2019-05-09T00:29:25.742Z,0.60
2019-05-09T00:30:25.737Z,1.00
2019-05-09T00:32:25.739Z,0.60
2019-05-09T00:33:25.745Z,0.50
2019-05-09T00:34:25.758Z,0.60
2019-05-09T00:35:25.716Z,0.50
2019-05-09T00:37:25.762Z,0.50
2019-05-09T00:38:25.738Z,0.60
2019-05-09T00:39:25.736Z,0.60
2019-05-09T00:40:25.745Z,0.50
2019-05-09T00:42:25.764Z,0.50
2019-05-09T00:43:25.764Z,0.50
2019-05-09T00:44:25.782Z,0.50
2019-05-09T00:45:25.777Z,0.40
2019-05-09T00:48:25.727Z,0.70
2019-05-09T00:49:25.733Z,0.50
2019-05-09T00:50:25.766Z,0.50
2019-05-09T00:51:25.743Z,0.50
2019-05-09T00:53:25.779Z,0.60
2019-05-09T00:54:25.787Z,0.40
2019-05-09T00:55:25.760Z,0.50
2019-05-09T00:56:25.809Z,0.50
2019-05-09T00:58:25.766Z,0.50
2019-05-09T00:59:25.773Z,0.50
2019-05-09T01:00:25.792Z,0.50
2019-05-09T01:01:25.873Z,0.60
2019-05-09T01:03:25.728Z,0.40
2019-05-09T01:04:25.777Z,0.50
2019-05-09T01:06:25.808Z,0.50
2019-05-09T01:07:25.801Z,0.50
2019-05-09T01:08:25.797Z,0.50
2019-05-09T01:09:25.740Z,0.50
2019-05-09T01:11:25.807Z,0.60
2019-05-09T01:12:25.780Z,0.50
2019-05-09T01:13:25.777Z,0.50
2019-05-09T01:14:25.774Z,0.60
2019-05-09T01:17:25.813Z,0.50
2019-05-09T01:18:25.749Z,0.50
2019-05-09T01:19:25.792Z,0.50
2019-05-09T01:20:25.768Z,0.50
2019-05-09T01:22:25.760Z,1.40
2019-05-09T01:23:25.822Z,0.60
2019-05-09T01:24:25.778Z,0.60
2019-05-09T01:25:25.805Z,0.50
2019-05-09T01:27:25.764Z,0.60
2019-05-09T01:28:25.762Z,0.50
2019-05-09T01:29:25.810Z,0.50
2019-05-09T01:30:25.809Z,0.50
2019-05-09T01:32:25.766Z,0.50
2019-05-09T01:33:25.763Z,0.60
2019-05-09T01:34:25.798Z,0.50
2019-05-09T01:35:25.786Z,0.50
2019-05-09T01:37:25.817Z,0.50
2019-05-09T01:38:25.844Z,0.40
2019-05-09T01:39:25.838Z,0.40
2019-05-09T01:40:25.805Z,0.40
2019-05-09T01:42:25.847Z,0.50
2019-05-09T01:43:25.803Z,0.60
2019-05-09T01:44:25.829Z,0.60
2019-05-09T01:45:25.811Z,0.50
2019-05-09T01:47:25.839Z,0.70
2019-05-09T01:48:25.787Z,0.50
2019-05-09T01:49:25.845Z,0.40
2019-05-09T01:50:25.845Z,1.10
2019-05-09T01:52:25.848Z,0.50
2019-05-09T01:53:25.860Z,0.50
2019-05-09T01:54:25.791Z,0.50
2019-05-09T01:55:25.843Z,0.50
2019-05-09T01:57:25.831Z,0.50
2019-05-09T01:58:25.825Z,0.50
2019-05-09T01:59:25.857Z,0.50
2019-05-09T02:00:25.850Z,0.60
2019-05-09T02:03:25.808Z,0.60
2019-05-09T02:04:25.809Z,0.40
2019-05-09T02:05:25.832Z,0.50
2019-05-09T02:06:25.797Z,0.50
2019-05-09T02:09:25.842Z,0.50
2019-05-09T02:10:25.875Z,0.50
2019-05-09T02:11:39.282Z,0.50
2019-05-09T02:12:25.817Z,0.50
2019-05-09T02:14:25.811Z,1.00
2019-05-09T02:15:25.834Z,0.70
2019-05-09T02:16:25.843Z,0.50
2019-05-09T02:17:25.874Z,0.50
2019-05-09T02:19:25.842Z,0.40
2019-05-09T02:20:25.884Z,0.50
2019-05-09T02:21:25.876Z,0.50
2019-05-09T02:22:25.840Z,0.50
2019-05-09T02:25:25.824Z,0.50
2019-05-09T02:26:25.833Z,0.50
2019-05-09T02:27:25.824Z,0.40
2019-05-09T02:28:25.837Z,0.90
2019-05-09T02:30:25.858Z,0.60
2019-05-09T02:31:25.881Z,0.50
2019-05-09T02:32:25.851Z,0.40
2019-05-09T02:33:25.837Z,0.50
2019-05-09T02:36:29.451Z,0.40
2019-05-09T02:37:28.643Z,0.40
2019-05-09T02:38:28.729Z,0.50
2019-05-09T02:39:25.847Z,0.40
2019-05-09T02:42:28.080Z,0.40
2019-05-09T02:43:28.818Z,0.60
2019-05-09T02:44:28.756Z,0.40
2019-05-09T02:45:28.397Z,0.70
2019-05-09T02:47:28.696Z,0.50
2019-05-09T02:48:28.735Z,0.40
2019-05-09T02:49:28.751Z,0.40
2019-05-09T02:50:28.538Z,1.20
2019-05-09T02:52:28.475Z,0.40
2019-05-09T02:53:28.873Z,0.50
2019-05-09T02:54:25.899Z,0.40
2019-05-09T02:55:28.701Z,0.40
2019-05-09T02:57:29.084Z,0.60
2019-05-09T02:58:28.233Z,0.40
2019-05-09T02:59:29.417Z,0.40
2019-05-09T03:00:28.600Z,0.40
2019-05-09T03:02:28.675Z,0.40
2019-05-09T03:03:28.813Z,0.50
2019-05-09T03:04:28.445Z,0.60
2019-05-09T03:05:25.873Z,0.60
2019-05-09T03:07:28.680Z,0.50
2019-05-09T03:08:29.358Z,0.60
2019-05-09T03:09:28.430Z,0.50
2019-05-09T03:10:28.996Z,0.50
2019-05-09T03:13:28.837Z,0.50
2019-05-09T03:14:28.612Z,0.40
2019-05-09T03:15:28.687Z,0.50
2019-05-09T03:16:29.096Z,0.50
2019-05-09T03:19:25.895Z,0.40
2019-05-09T03:20:28.710Z,0.40
2019-05-09T03:21:25.903Z,0.60
2019-05-09T03:22:28.654Z,0.40
2019-05-09T03:24:28.581Z,0.40
2019-05-09T03:25:28.733Z,0.40
2019-05-09T03:26:29.054Z,0.50
2019-05-09T03:27:28.522Z,0.40
2019-05-09T03:29:28.903Z,0.50
2019-05-09T03:30:28.925Z,0.50
2019-05-09T03:31:29.575Z,0.40
2019-05-09T03:32:29.423Z,0.40
2019-05-09T03:34:29.793Z,0.40
2019-05-09T03:35:27.572Z,0.40
2019-05-09T03:36:27.980Z,0.50
2019-05-09T03:37:27.861Z,0.50
2019-05-09T03:39:27.629Z,0.40
2019-05-09T03:40:27.218Z,0.40
2019-05-09T03:41:27.904Z,0.50
2019-05-09T03:42:38.066Z,0.50
2019-05-09T03:44:28.051Z,0.50
2019-05-09T03:45:27.345Z,0.30
2019-05-09T03:46:27.947Z,0.40
2019-05-09T03:47:27.601Z,0.60
2019-05-09T03:49:28.228Z,0.40
2019-05-09T03:50:27.985Z,0.40
2019-05-09T03:51:27.496Z,0.40
2019-05-09T03:52:27.894Z,0.40
2019-05-09T03:55:28.049Z,0.50
2019-05-09T03:56:27.364Z,0.30
2019-05-09T03:57:28.219Z,0.40
2019-05-09T03:58:28.029Z,0.40
2019-05-09T04:00:28.211Z,0.40
2019-05-09T04:01:27.485Z,0.40
2019-05-09T04:02:28.014Z,0.50
2019-05-09T04:03:27.676Z,0.40
2019-05-09T04:06:28.141Z,0.40
2019-05-09T04:07:27.752Z,0.40
2019-05-09T04:08:28.066Z,0.40
2019-05-09T04:09:27.366Z,0.40
2019-05-09T04:12:28.229Z,0.40
2019-05-09T04:13:28.124Z,0.50
2019-05-09T04:14:28.027Z,0.50
2019-05-09T04:15:27.509Z,0.40
2019-05-09T04:17:28.052Z,0.50
2019-05-09T04:18:27.732Z,0.40
2019-05-09T04:19:27.594Z,0.40
2019-05-09T04:20:27.702Z,0.50
2019-05-09T04:22:27.173Z,0.40
2019-05-09T04:24:27.971Z,0.50
2019-05-09T04:25:27.360Z,0.40
2019-05-09T04:26:27.659Z,0.40
2019-05-09T04:27:29.660Z,0.40
2019-05-09T04:29:28.317Z,0.40
2019-05-09T04:30:27.444Z,0.30
2019-05-09T04:31:27.835Z,0.30
2019-05-09T04:32:27.381Z,0.40
2019-05-09T04:34:27.491Z,0.40
2019-05-09T04:35:27.950Z,0.50
2019-05-09T04:36:27.340Z,0.40
2019-05-09T04:37:28.125Z,0.40
2019-05-09T04:39:28.007Z,0.40
2019-05-09T04:40:29.507Z,0.40
2019-05-09T04:41:28.475Z,0.30
2019-05-09T04:42:28.261Z,0.50
2019-05-09T04:44:28.217Z,0.40
2019-05-09T04:45:28.193Z,0.60
2019-05-09T04:46:27.728Z,0.40
2019-05-09T04:47:27.793Z,0.40
2019-05-09T04:49:29.632Z,0.40
2019-05-09T04:50:27.961Z,0.30
2019-05-09T04:51:28.289Z,0.40
2019-05-09T04:52:27.910Z,0.40
2019-05-09T04:54:27.992Z,0.50
2019-05-09T04:55:27.350Z,0.30
2019-05-09T04:56:27.873Z,0.50
2019-05-09T04:57:27.872Z,0.30
2019-05-09T04:59:28.133Z,0.40
2019-05-09T05:00:27.342Z,0.30
2019-05-09T05:01:28.242Z,0.30
2019-05-09T05:02:27.622Z,0.40
2019-05-09T05:04:28.104Z,0.40
2019-05-09T05:05:25.969Z,0.30
2019-05-09T05:06:28.085Z,0.40
2019-05-09T05:07:26.002Z,0.40
2019-05-09T05:09:27.736Z,0.50
2019-05-09T05:10:27.339Z,0.40
2019-05-09T05:11:27.890Z,0.40
2019-05-09T05:13:29.027Z,0.40
2019-05-09T05:14:27.999Z,0.40
2019-05-09T05:15:27.646Z,0.40
2019-05-09T05:16:27.423Z,0.30
2019-05-09T05:18:28.289Z,0.30
2019-05-09T05:19:28.506Z,0.40
2019-05-09T05:20:27.758Z,0.40
2019-05-09T05:21:28.011Z,0.30
2019-05-09T05:23:27.588Z,0.40
2019-05-09T05:24:27.775Z,0.40
2019-05-09T05:25:27.916Z,0.40
2019-05-09T05:26:27.715Z,0.40
2019-05-09T05:28:27.844Z,0.50
2019-05-09T05:29:28.116Z,0.40
2019-05-09T05:30:28.240Z,0.40
2019-05-09T05:31:28.353Z,0.70
2019-05-09T05:33:27.752Z,0.40
2019-05-09T05:34:27.439Z,0.30
2019-05-09T05:35:28.323Z,0.40
2019-05-09T05:36:27.945Z,0.30
2019-05-09T05:38:27.530Z,0.40
2019-05-09T05:39:28.158Z,0.40
2019-05-09T05:40:31.881Z,0.50
2019-05-09T05:41:28.321Z,0.30
2019-05-09T05:43:38.535Z,0.40
2019-05-09T05:44:28.125Z,0.30
2019-05-09T05:45:28.383Z,0.30
2019-05-09T05:46:28.410Z,0.30
2019-05-09T05:48:27.917Z,0.30
2019-05-09T05:49:27.983Z,0.30
2019-05-09T05:50:28.124Z,0.40
2019-05-09T05:51:27.666Z,0.50
2019-05-09T05:54:27.655Z,0.40
2019-05-09T05:55:27.468Z,0.30
2019-05-09T05:56:27.995Z,0.40
2019-05-09T05:57:27.956Z,0.50
2019-05-09T05:59:28.374Z,0.40
2019-05-09T06:00:28.346Z,0.40
2019-05-09T06:01:27.883Z,0.40
2019-05-09T06:02:28.155Z,0.40
2019-05-09T06:04:27.542Z,2.20
2019-05-09T06:05:27.800Z,2.80
2019-05-09T06:06:27.920Z,4.80
2019-05-09T06:07:28.362Z,1.80
2019-05-09T06:09:28.066Z,2.00
2019-05-09T06:10:26.051Z,1.60
2019-05-09T06:11:28.109Z,2.20
2019-05-09T06:12:27.627Z,1.40
2019-05-09T06:14:28.417Z,2.60
2019-05-09T06:15:28.653Z,1.40
2019-05-09T06:16:27.996Z,2.60
2019-05-09T06:17:28.439Z,2.70
2019-05-09T06:19:28.433Z,1.90
2019-05-09T06:20:28.149Z,0.70
2019-05-09T06:21:28.111Z,2.10
2019-05-09T06:22:27.610Z,1.20
2019-05-09T06:24:28.261Z,2.30
2019-05-09T06:25:30.058Z,1.60
2019-05-09T06:26:28.883Z,0.90
2019-05-09T06:27:27.514Z,2.60
2019-05-09T06:29:28.700Z,0.50
2019-05-09T06:30:28.103Z,0.50
2019-05-09T06:31:28.252Z,0.50
2019-05-09T06:32:27.953Z,0.90
2019-05-09T06:35:28.203Z,0.80
2019-05-09T06:36:28.328Z,2.00
2019-05-09T06:37:27.641Z,1.40
2019-05-09T06:38:28.210Z,1.30
2019-05-09T06:40:28.474Z,0.70
2019-05-09T06:41:28.377Z,0.80
2019-05-09T06:42:28.448Z,1.20
2019-05-09T06:43:28.847Z,0.40
2019-05-09T06:44:28.244Z,2.10
2019-05-09T06:46:27.714Z,1.50
2019-05-09T06:47:27.787Z,1.20
2019-05-09T06:48:28.297Z,1.00
2019-05-09T06:49:29.326Z,1.30
2019-05-09T06:51:27.695Z,0.90
2019-05-09T06:52:28.229Z,0.70
2019-05-09T06:53:27.235Z,1.20
2019-05-09T06:54:27.861Z,1.60
2019-05-09T06:57:28.126Z,1.10
2019-05-09T06:59:28.144Z,1.70
2019-05-09T07:00:28.229Z,2.00
2019-05-09T07:01:28.314Z,7.30
2019-05-09T07:02:28.223Z,3.70
2019-05-09T07:04:27.691Z,4.80
2019-05-09T07:05:26.143Z,6.90
2019-05-09T07:06:28.335Z,6.40
2019-05-09T07:07:28.055Z,6.10
2019-05-09T07:09:28.019Z,5.60
2019-05-09T07:10:28.276Z,5.80
2019-05-09T07:11:27.499Z,7.90
2019-05-09T07:12:27.417Z,3.30
2019-05-09T07:14:29.865Z,6.80
2019-05-09T07:15:28.180Z,3.80
2019-05-09T07:16:27.661Z,4.00
2019-05-09T07:17:31.715Z,5.30
2019-05-09T07:20:28.322Z,6.90
2019-05-09T07:21:28.628Z,7.10
2019-05-09T07:22:28.013Z,7.50
2019-05-09T07:23:28.070Z,5.50
2019-05-09T07:25:27.754Z,4.70
2019-05-09T07:26:28.110Z,2.10
2019-05-09T07:27:28.444Z,3.40
2019-05-09T07:28:28.225Z,3.20
2019-05-09T07:30:28.854Z,4.10
2019-05-09T07:31:27.954Z,6.10
2019-05-09T07:32:27.700Z,3.40
2019-05-09T07:33:27.830Z,3.60
2019-05-09T07:35:27.820Z,3.00
2019-05-09T07:36:27.790Z,5.30
2019-05-09T07:37:27.544Z,5.10
2019-05-09T07:38:27.677Z,2.60
2019-05-09T07:40:30.173Z,5.40
2019-05-09T07:41:28.183Z,3.00
2019-05-09T07:42:28.385Z,1.90
2019-05-09T07:43:28.200Z,4.10
2019-05-09T07:45:28.103Z,3.90
2019-05-09T07:46:28.167Z,3.10
2019-05-09T07:47:28.125Z,2.70
2019-05-09T07:48:28.472Z,3.20
2019-05-09T07:51:27.524Z,2.50
2019-05-09T07:52:28.349Z,2.00
2019-05-09T07:53:28.276Z,3.40
2019-05-09T07:54:29.330Z,3.00
2019-05-09T07:56:28.267Z,3.90
2019-05-09T07:57:28.525Z,3.80
2019-05-09T07:59:27.474Z,1.80
2019-05-09T08:00:27.730Z,3.70
2019-05-09T08:01:28.070Z,4.30
2019-05-09T08:02:28.181Z,3.30
2019-05-09T08:04:28.531Z,2.20
2019-05-09T08:05:27.957Z,3.20
2019-05-09T08:06:28.575Z,2.80
2019-05-09T08:07:28.986Z,3.50
2019-05-09T08:09:28.148Z,2.40
2019-05-09T08:10:30.671Z,3.20
2019-05-09T08:11:28.401Z,4.10
2019-05-09T08:12:28.367Z,3.50
2019-05-09T08:14:28.152Z,4.10
2019-05-09T08:15:27.981Z,3.00
2019-05-09T08:16:27.891Z,2.30
2019-05-09T08:17:28.411Z,3.30
2019-05-09T08:19:27.455Z,2.80
2019-05-09T08:20:27.795Z,3.60
2019-05-09T08:21:27.680Z,3.20
2019-05-09T08:22:30.611Z,2.30
2019-05-09T08:24:27.766Z,3.50
2019-05-09T08:25:27.701Z,4.40
2019-05-09T08:26:29.774Z,3.00
2019-05-09T08:27:30.121Z,2.90
2019-05-09T08:30:32.925Z,2.70
2019-05-09T08:31:28.073Z,2.30
2019-05-09T08:32:28.609Z,4.30
2019-05-09T08:33:28.563Z,2.50
2019-05-09T08:35:27.978Z,3.10
2019-05-09T08:36:28.215Z,3.10
2019-05-09T08:37:28.291Z,2.30
2019-05-09T08:38:28.230Z,2.30
2019-05-09T08:41:28.893Z,3.00
2019-05-09T08:42:26.211Z,3.40
2019-05-09T08:43:28.228Z,2.80
2019-05-09T08:44:30.571Z,2.70
2019-05-09T08:46:28.457Z,2.40
2019-05-09T08:47:27.791Z,3.00
2019-05-09T08:48:28.301Z,3.90
2019-05-09T08:49:28.551Z,2.30
2019-05-09T08:52:28.603Z,2.10
2019-05-09T08:53:27.584Z,2.30
2019-05-09T08:54:27.388Z,1.70
2019-05-09T08:55:27.774Z,2.80
2019-05-09T08:57:28.659Z,3.00
2019-05-09T08:58:27.763Z,3.00
2019-05-09T08:59:27.635Z,4.20
2019-05-09T09:00:28.131Z,2.00
2019-05-09T09:02:28.330Z,3.20
2019-05-09T09:03:28.269Z,2.10
2019-05-09T09:04:29.247Z,3.50
2019-05-09T09:05:28.672Z,3.00
2019-05-09T09:08:28.332Z,2.10
2019-05-09T09:09:28.423Z,1.80
2019-05-09T09:10:28.489Z,3.50
2019-05-09T09:11:28.041Z,2.90
2019-05-09T09:13:28.252Z,2.50
2019-05-09T09:14:27.911Z,3.30
2019-05-09T09:15:50.398Z,3.10
2019-05-09T09:16:28.369Z,2.80
2019-05-09T09:18:28.254Z,1.90
2019-05-09T09:19:28.064Z,2.20
2019-05-09T09:20:28.552Z,2.70
2019-05-09T09:21:28.595Z,2.80
2019-05-09T09:23:42.431Z,2.10
2019-05-09T09:24:28.268Z,2.40
2019-05-09T09:25:28.480Z,2.50
2019-05-09T09:26:27.728Z,2.70
2019-05-09T09:28:27.657Z,2.20
2019-05-09T09:29:28.411Z,2.90
2019-05-09T09:30:28.969Z,2.00
2019-05-09T09:31:28.331Z,2.50
2019-05-09T09:34:27.791Z,2.00
2019-05-09T09:35:27.786Z,2.20
2019-05-09T09:36:28.069Z,1.30
2019-05-09T09:37:32.622Z,1.30
2019-05-09T09:39:27.573Z,2.50
2019-05-09T09:40:27.944Z,2.10
2019-05-09T09:41:28.516Z,1.80
2019-05-09T09:42:28.273Z,2.40
2019-05-09T09:44:28.515Z,2.00
2019-05-09T09:45:28.077Z,2.30
2019-05-09T09:46:28.371Z,2.10
2019-05-09T09:47:28.484Z,1.90
2019-05-09T09:49:28.967Z,2.10
2019-05-09T09:50:27.633Z,1.80
2019-05-09T09:51:27.625Z,1.40
2019-05-09T09:52:29.076Z,1.50
2019-05-09T09:54:28.138Z,1.60
2019-05-09T09:55:27.819Z,1.70
2019-05-09T09:56:28.218Z,2.20
2019-05-09T09:57:28.627Z,1.70
2019-05-09T09:59:28.225Z,2.00
2019-05-09T10:00:26.335Z,0.90
2019-05-09T10:01:28.807Z,1.30
2019-05-09T10:02:27.979Z,1.90
2019-05-09T10:04:28.206Z,2.30
2019-05-09T10:05:27.782Z,1.30
2019-05-09T10:06:28.429Z,1.90
2019-05-09T10:07:27.969Z,2.70
2019-05-09T10:09:26.322Z,1.70
2019-05-09T10:10:28.599Z,2.10
2019-05-09T10:11:28.575Z,1.60
2019-05-09T10:12:28.434Z,1.60
2019-05-09T10:14:28.323Z,1.70
2019-05-09T10:15:28.118Z,1.70
2019-05-09T10:16:29.979Z,2.50
2019-05-09T10:17:28.128Z,2.00
2019-05-09T10:19:27.849Z,1.40
2019-05-09T10:20:28.993Z,2.90
2019-05-09T10:21:27.678Z,1.10
2019-05-09T10:22:26.811Z,2.80
2019-05-09T10:24:28.105Z,2.40
2019-05-09T10:25:27.604Z,2.80
2019-05-09T10:26:28.378Z,2.50
2019-05-09T10:27:28.402Z,2.20
2019-05-09T10:29:27.918Z,2.40
2019-05-09T10:30:28.388Z,1.80
2019-05-09T10:31:28.275Z,1.80
2019-05-09T10:32:28.660Z,2.20
2019-05-09T10:34:28.636Z,2.10
2019-05-09T10:35:27.908Z,1.70
2019-05-09T10:36:27.865Z,1.30
2019-05-09T10:37:26.312Z,2.60
2019-05-09T10:40:28.148Z,1.40
2019-05-09T10:41:26.338Z,3.80
2019-05-09T10:42:28.641Z,4.00
2019-05-09T10:43:35.671Z,1.30
2019-05-09T10:45:26.343Z,1.20
2019-05-09T10:46:39.094Z,1.90
2019-05-09T10:47:27.289Z,1.00
2019-05-09T10:48:28.271Z,1.90
2019-05-09T10:50:32.933Z,1.60
2019-05-09T10:51:26.349Z,1.70
2019-05-09T10:52:28.312Z,1.90
2019-05-09T10:53:28.358Z,0.70
2019-05-09T10:56:28.071Z,1.70
2019-05-09T10:57:30.890Z,1.20
2019-05-09T10:58:28.022Z,1.20
2019-05-09T10:59:26.381Z,0.60
2019-05-09T11:01:29.182Z,1.50
2019-05-09T11:02:27.941Z,1.10
2019-05-09T11:03:26.359Z,1.90
2019-05-09T11:04:28.605Z,1.90
2019-05-09T11:07:28.709Z,1.30
2019-05-09T11:08:28.563Z,2.20
2019-05-09T11:09:29.130Z,1.00
2019-05-09T11:10:31.811Z,1.60
2019-05-09T11:13:28.683Z,1.70
2019-05-09T11:14:36.174Z,1.10
2019-05-09T11:15:26.378Z,2.60
2019-05-09T11:16:39.627Z,1.60
2019-05-09T11:18:28.632Z,1.80
2019-05-09T11:19:28.728Z,1.30
2019-05-09T11:20:28.465Z,1.50
2019-05-09T11:21:28.587Z,1.00
2019-05-09T11:24:41.132Z,1.90
2019-05-09T11:25:27.741Z,0.60
2019-05-09T11:26:28.557Z,1.60
2019-05-09T11:27:29.067Z,1.80
2019-05-09T11:30:28.142Z,0.90
2019-05-09T11:31:26.402Z,1.20
2019-05-09T11:32:27.789Z,1.10
2019-05-09T11:34:26.392Z,1.00
2019-05-09T11:35:26.428Z,0.70
2019-05-09T11:36:26.399Z,1.50
2019-05-09T11:37:26.411Z,1.20
2019-05-09T11:39:38.212Z,0.80
2019-05-09T11:40:28.181Z,1.30
2019-05-09T11:41:29.290Z,0.90
2019-05-09T11:42:28.319Z,1.20
2019-05-09T11:44:27.275Z,1.00
2019-05-09T11:45:28.080Z,1.40
2019-05-09T11:46:28.620Z,1.10
2019-05-09T11:47:34.330Z,1.30
2019-05-09T11:49:29.259Z,1.60
2019-05-09T11:50:26.835Z,0.90
2019-05-09T11:51:29.114Z,1.10
2019-05-09T11:52:28.854Z,0.70
2019-05-09T11:54:27.950Z,0.90
2019-05-09T11:55:34.954Z,0.80
2019-05-09T11:56:26.442Z,0.70
2019-05-09T11:57:28.681Z,1.20
2019-05-09T11:59:28.020Z,1.30
2019-05-09T12:00:26.500Z,2.90
2019-05-09T12:01:28.986Z,1.20
2019-05-09T12:02:27.918Z,1.40
2019-05-09T12:04:28.159Z,1.20
2019-05-09T12:05:28.835Z,0.90
2019-05-09T12:06:28.983Z,1.00
2019-05-09T12:07:28.768Z,0.60
2019-05-09T12:09:28.914Z,0.80
2019-05-09T12:10:28.542Z,0.90
2019-05-09T12:11:26.546Z,0.80
2019-05-09T12:12:28.297Z,0.70
2019-05-09T12:14:27.625Z,0.80
2019-05-09T12:15:29.130Z,1.30
2019-05-09T12:16:27.949Z,1.60
2019-05-09T12:17:29.755Z,1.20
2019-05-09T12:19:29.337Z,1.00
2019-05-09T12:20:27.683Z,1.80
2019-05-09T12:21:28.220Z,1.60
2019-05-09T12:22:28.025Z,0.70
2019-05-09T12:24:26.472Z,0.40
2019-05-09T12:25:28.358Z,0.80
2019-05-09T12:26:29.261Z,1.20
2019-05-09T12:27:28.132Z,0.90
2019-05-09T12:29:28.801Z,0.90
2019-05-09T12:30:28.463Z,0.60
2019-05-09T12:31:28.752Z,0.70
2019-05-09T12:32:28.417Z,0.70
2019-05-09T12:34:27.743Z,1.10
2019-05-09T12:35:26.771Z,0.70
2019-05-09T12:36:28.649Z,0.80
2019-05-09T12:37:28.133Z,0.60
2019-05-09T12:39:27.532Z,1.80
2019-05-09T12:40:26.452Z,1.00
2019-05-09T12:41:30.984Z,1.50
2019-05-09T12:42:28.929Z,0.90
2019-05-09T12:44:28.793Z,2.50
2019-05-09T12:45:26.555Z,0.80
2019-05-09T12:46:28.364Z,0.80
2019-05-09T12:47:29.166Z,1.60
2019-05-09T12:49:28.333Z,0.70
2019-05-09T12:50:29.288Z,0.90
2019-05-09T12:51:28.177Z,0.70
2019-05-09T12:52:29.551Z,1.20
2019-05-09T12:54:27.949Z,0.60
2019-05-09T12:55:27.561Z,0.50
2019-05-09T12:56:28.544Z,0.70
2019-05-09T12:57:28.897Z,1.50
2019-05-09T13:00:28.384Z,0.90
2019-05-09T13:01:26.436Z,1.40
2019-05-09T13:02:27.898Z,1.30
2019-05-09T13:03:27.646Z,2.60
2019-05-09T13:04:28.110Z,2.10
2019-05-09T13:06:29.302Z,4.40
2019-05-09T13:07:29.464Z,3.50
2019-05-09T13:08:27.850Z,4.80
2019-05-09T13:09:28.595Z,4.50
2019-05-09T13:11:27.973Z,6.90
2019-05-09T13:12:29.060Z,9.60
2019-05-09T13:13:30.262Z,8.40
2019-05-09T13:14:28.611Z,10.60
2019-05-09T13:16:43.519Z,6.70
2019-05-09T13:17:27.278Z,12.50
2019-05-09T13:18:29.641Z,13.30
2019-05-09T13:19:27.898Z,10.30
2019-05-09T13:21:29.700Z,9.20
2019-05-09T13:22:28.417Z,8.70
2019-05-09T13:23:28.892Z,9.20
2019-05-09T13:24:28.329Z,11.70
2019-05-09T13:26:28.816Z,7.60
2019-05-09T13:27:28.604Z,9.40
2019-05-09T13:28:26.506Z,8.00
2019-05-09T13:29:26.526Z,5.70
2019-05-09T13:31:29.426Z,6.70
2019-05-09T13:32:27.987Z,10.50
2019-05-09T13:33:28.622Z,6.10
2019-05-09T13:34:28.361Z,9.60
2019-05-09T13:36:28.494Z,7.60
2019-05-09T13:37:29.473Z,8.50
2019-05-09T13:38:27.656Z,7.50
2019-05-09T13:39:27.937Z,7.80
2019-05-09T13:41:26.554Z,7.50
2019-05-09T13:42:28.443Z,7.30
2019-05-09T13:43:28.169Z,6.90
2019-05-09T13:44:27.782Z,6.60
2019-05-09T13:46:28.345Z,8.80
2019-05-09T13:47:28.021Z,7.90
2019-05-09T13:48:37.900Z,5.90
2019-05-09T13:49:28.593Z,8.60
2019-05-09T13:51:26.517Z,13.40
2019-05-09T13:52:27.430Z,5.30
2019-05-09T13:53:28.421Z,6.10
2019-05-09T13:54:28.542Z,3.60
2019-05-09T13:56:28.042Z,8.60
2019-05-09T13:57:27.744Z,4.50
2019-05-09T13:58:28.384Z,4.10
2019-05-09T13:59:29.274Z,5.40
2019-05-09T14:01:26.538Z,16.80
2019-05-09T14:02:29.138Z,19.90
2019-05-09T14:03:28.121Z,29.80
2019-05-09T14:04:28.646Z,26.50
2019-05-09T14:07:27.914Z,21.10
2019-05-09T14:08:28.526Z,13.80
2019-05-09T14:09:29.181Z,18.60
2019-05-09T14:10:28.852Z,16.80
2019-05-09T14:12:28.796Z,16.40
2019-05-09T14:13:27.953Z,23.50
2019-05-09T14:14:28.137Z,24.60
2019-05-09T14:15:27.501Z,12.00
2019-05-09T14:17:44.851Z,17.80
2019-05-09T14:18:26.560Z,11.50
2019-05-09T14:19:35.974Z,15.20
2019-05-09T14:20:27.519Z,11.30
2019-05-09T14:23:34.887Z,9.60
2019-05-09T14:25:28.950Z,9.40
2019-05-09T14:26:27.760Z,10.40
2019-05-09T14:27:28.552Z,8.40
2019-05-09T14:28:28.566Z,8.70
2019-05-09T14:30:27.533Z,6.60
2019-05-09T14:31:31.599Z,7.20
2019-05-09T14:32:26.827Z,6.80
2019-05-09T14:33:26.547Z,6.10
2019-05-09T14:35:27.746Z,10.50
2019-05-09T14:36:27.795Z,10.20
2019-05-09T14:37:28.371Z,9.00
2019-05-09T14:38:26.555Z,8.90
2019-05-09T14:41:27.711Z,9.40
2019-05-09T14:42:28.945Z,7.50
2019-05-09T14:43:27.841Z,8.90
2019-05-09T14:44:27.671Z,9.30
2019-05-09T14:47:27.787Z,9.10
2019-05-09T14:48:28.648Z,7.80
2019-05-09T14:49:39.582Z,8.70
2019-05-09T14:50:28.513Z,6.70
2019-05-09T14:52:28.354Z,8.30
2019-05-09T14:53:28.258Z,6.20
2019-05-09T14:54:28.930Z,5.50
2019-05-09T14:55:28.524Z,7.90
2019-05-09T14:57:28.584Z,4.80
2019-05-09T14:58:28.804Z,3.70
2019-05-09T14:59:28.594Z,6.00
2019-05-09T15:00:26.605Z,6.50
2019-05-09T15:02:26.618Z,5.60
2019-05-09T15:03:27.780Z,5.70
2019-05-09T15:04:27.837Z,8.30
2019-05-09T15:05:27.917Z,4.50
2019-05-09T15:07:28.411Z,4.90
2019-05-09T15:08:27.987Z,5.50
2019-05-09T15:09:28.387Z,5.10
2019-05-09T15:10:26.611Z,4.90
2019-05-09T15:13:28.556Z,4.70
2019-05-09T15:14:28.723Z,4.20
2019-05-09T15:15:32.002Z,4.50
2019-05-09T15:16:28.258Z,4.80
2019-05-09T15:18:26.593Z,3.60
2019-05-09T15:19:28.742Z,4.90
2019-05-09T15:20:28.068Z,5.50
2019-05-09T15:21:26.621Z,5.70
2019-05-09T15:23:29.165Z,4.80
2019-05-09T15:24:28.720Z,3.30
2019-05-09T15:25:28.160Z,3.00
2019-05-09T15:26:27.527Z,4.20
2019-05-09T15:28:28.950Z,6.50
2019-05-09T15:29:28.783Z,4.10
2019-05-09T15:30:28.712Z,2.40
2019-05-09T15:31:28.668Z,4.50
2019-05-09T15:33:27.509Z,4.20
2019-05-09T15:34:28.478Z,4.60
2019-05-09T15:35:28.105Z,4.00
2019-05-09T15:36:26.628Z,4.00
2019-05-09T15:38:28.744Z,4.90
2019-05-09T15:39:27.779Z,3.10
2019-05-09T15:40:28.240Z,4.10
2019-05-09T15:41:27.738Z,3.10
2019-05-09T15:43:26.707Z,3.10
2019-05-09T15:44:26.629Z,2.80
2019-05-09T15:45:28.561Z,4.50
2019-05-09T15:46:27.860Z,2.40
2019-05-09T15:48:27.500Z,3.00
2019-05-09T15:49:28.469Z,3.30
2019-05-09T15:50:27.834Z,2.30
2019-05-09T15:51:27.933Z,2.70
2019-05-09T15:53:27.818Z,2.70
2019-05-09T15:54:29.221Z,2.50
2019-05-09T15:55:28.293Z,2.00
2019-05-09T15:56:28.837Z,3.50
2019-05-09T15:58:28.705Z,2.40
2019-05-09T15:59:28.063Z,3.90
2019-05-09T16:00:28.410Z,2.20
2019-05-09T16:01:27.881Z,3.60
2019-05-09T16:03:27.904Z,2.20
2019-05-09T16:04:28.066Z,1.90
2019-05-09T16:05:26.658Z,2.70
2019-05-09T16:06:32.613Z,3.40
2019-05-09T16:08:28.849Z,3.10
2019-05-09T16:09:28.561Z,2.50
2019-05-09T16:10:28.349Z,2.50
2019-05-09T16:11:28.574Z,3.20
2019-05-09T16:13:28.490Z,2.50
2019-05-09T16:14:27.665Z,3.50
2019-05-09T16:15:28.404Z,3.80
2019-05-09T16:16:28.602Z,2.10
2019-05-09T16:18:28.849Z,1.60
2019-05-09T16:19:26.728Z,4.60
2019-05-09T16:20:37.106Z,2.70
2019-05-09T16:21:27.759Z,3.20
2019-05-09T16:23:28.897Z,2.90
2019-05-09T16:24:28.024Z,4.00
2019-05-09T16:25:28.342Z,4.80
2019-05-09T16:26:28.959Z,2.20
2019-05-09T16:28:26.686Z,1.80
2019-05-09T16:29:28.567Z,1.90
2019-05-09T16:30:27.504Z,2.40
2019-05-09T16:31:27.965Z,2.30
2019-05-09T16:33:27.888Z,3.10
2019-05-09T16:34:28.209Z,2.00
2019-05-09T16:35:28.634Z,1.80
2019-05-09T16:36:28.169Z,2.30
2019-05-09T16:38:41.256Z,2.00
2019-05-09T16:39:27.916Z,1.60
2019-05-09T16:40:28.001Z,2.40
2019-05-09T16:41:27.979Z,2.70
2019-05-09T16:43:26.715Z,2.20
2019-05-09T16:44:26.695Z,2.50
2019-05-09T16:45:28.753Z,2.00
2019-05-09T16:46:28.626Z,1.80
2019-05-09T16:48:27.640Z,2.70
2019-05-09T16:49:29.311Z,2.10
2019-05-09T16:50:26.714Z,0.90
2019-05-09T16:51:28.605Z,2.90
2019-05-09T16:54:28.339Z,1.80
2019-05-09T16:55:31.087Z,1.30
2019-05-09T16:56:28.702Z,1.30
2019-05-09T16:57:27.587Z,1.60
2019-05-09T17:00:27.461Z,3.10
2019-05-09T17:01:28.359Z,1.50
2019-05-09T17:02:28.741Z,1.10
2019-05-09T17:03:28.385Z,2.00
2019-05-09T17:05:27.886Z,2.30
2019-05-09T17:07:27.837Z,2.00
2019-05-09T17:08:28.203Z,1.90
2019-05-09T17:09:28.592Z,2.00
2019-05-09T17:10:26.738Z,1.70
2019-05-09T17:12:26.735Z,3.40
2019-05-09T17:13:28.878Z,2.00
2019-05-09T17:14:28.348Z,1.90
2019-05-09T17:15:29.034Z,1.30
2019-05-09T17:17:27.852Z,1.20
2019-05-09T17:18:28.282Z,1.90